Time;durP1;ratioP1;P1;durP2;ratioP2;P2;SDS_P1;SDS_P2;PMS_P1;PMS_P2;Temp;Humidity;BMP_temperature;BMP_pressure;BME280_temperature;BME280_humidity;BME280_pressure;Samples;Min_cycle;Max_cycle;Signal;HPM_P1;HPM_P2
2022/01/14 00:01:23;;;;;;;39.35;14.48;;;;;;;;;;5052741;27;100701;-75
2022/01/14 00:03:50;;;;;;;38.58;16.00;;;;;;;;;;5035329;27;100588;-75
2022/01/14 00:06:16;;;;;;;35.83;14.27;;;;;;;;;;5018122;27;100185;-75
2022/01/14 00:08:43;;;;;;;38.80;14.95;;;;;;;;;;5036151;27;100058;-74
2022/01/14 00:11:15;;;;;;;36.75;14.35;;;;;;;;;;5052679;27;100220;-74
2022/01/14 00:16:19;;;;;;;38.03;13.50;;;;;;;;;;5020974;27;99973;-74
2022/01/14 00:18:46;;;;;;;33.80;13.70;;;;;;;;;;5020140;28;100082;-74
2022/01/14 00:21:13;;;;;;;38.13;14.73;;;;;;;;;;5031609;28;100780;-74
2022/01/14 00:23:41;;;;;;;42.50;16.15;;;;;;;;;;5032010;28;100726;-74
2022/01/14 00:34:13;;;;;;;44.22;17.15;;;;;;;;;;5053020;27;100674;-74
2022/01/14 00:36:40;;;;;;;40.67;16.65;;;;;;;;;;5035011;27;100102;-74
2022/01/14 00:39:08;;;;;;;43.15;16.15;;;;;;;;;;5035531;27;100105;-74
2022/01/14 00:41:35;;;;;;;34.05;13.50;;;;;;;;;;4997284;28;101580;-74
2022/01/14 00:44:05;;;;;;;38.22;15.82;;;;;;;;;;5013690;28;100711;-74
2022/01/14 00:46:32;;;;;;;41.80;15.40;;;;;;;;;;5013537;27;100172;-74
2022/01/14 00:48:59;;;;;;;32.38;14.73;;;;;;;;;;5014654;28;101266;-75
2022/01/14 00:51:26;;;;;;;27.42;12.02;;;;;;;;;;5032234;27;100244;-74
2022/01/14 00:53:53;;;;;;;33.78;14.02;;;;;;;;;;5032188;27;100527;-74
2022/01/14 00:59:14;;;;;;;36.38;15.32;;;;;;;;;;5032743;27;99988;-74
2022/01/14 01:01:49;;;;;;;39.83;17.10;;;;;;;;;;5032540;27;101867;-75
2022/01/14 01:04:28;;;;;;;40.75;16.77;;;;;;;;;;5014703;28;100913;-74
2022/01/14 01:06:55;;;;;;;33.45;14.55;;;;;;;;;;5034296;27;100192;-74
2022/01/14 01:09:24;;;;;;;39.72;14.77;;;;;;;;;;5034405;27;100051;-74
2022/01/14 01:12:07;;;;;;;47.35;16.27;;;;;;;;;;5034132;27;100969;-74
2022/01/14 01:14:45;;;;;;;27.50;11.48;;;;;;;;;;5033013;27;100801;-74
2022/01/14 01:17:12;;;;;;;37.47;13.55;;;;;;;;;;5035808;27;100235;-74
2022/01/14 01:19:39;;;;;;;32.75;13.48;;;;;;;;;;5049248;27;100321;-74
2022/01/14 01:22:06;;;;;;;32.08;13.05;;;;;;;;;;5013368;27;101229;-74
2022/01/14 01:24:45;;;;;;;31.55;15.20;;;;;;;;;;5014009;27;101631;-74
2022/01/14 01:27:13;;;;;;;33.78;13.80;;;;;;;;;;5032107;27;100139;-74
2022/01/14 01:32:07;;;;;;;34.92;13.68;;;;;;;;;;4996221;28;100363;-74
2022/01/14 01:34:34;;;;;;;37.72;14.43;;;;;;;;;;4996955;28;100831;-74
2022/01/14 01:37:02;;;;;;;38.47;16.17;;;;;;;;;;5032144;28;100201;-74
2022/01/14 01:39:30;;;;;;;39.85;15.20;;;;;;;;;;5003286;27;100113;-74
2022/01/14 01:41:59;;;;;;;36.60;14.45;;;;;;;;;;5013794;27;100259;-74
2022/01/14 01:44:26;;;;;;;30.13;12.20;;;;;;;;;;5036112;27;102117;-74
2022/01/14 01:46:54;;;;;;;37.05;15.27;;;;;;;;;;5020950;27;100228;-74
2022/01/14 01:49:25;;;;;;;37.30;15.93;;;;;;;;;;5038296;27;100035;-74
2022/01/14 01:51:54;;;;;;;40.60;15.38;;;;;;;;;;5021995;27;100349;-74
2022/01/14 01:54:22;;;;;;;30.00;12.30;;;;;;;;;;5037326;27;101087;-74
2022/01/14 01:56:52;;;;;;;35.33;14.05;;;;;;;;;;5020569;27;100173;-74
2022/01/14 01:59:20;;;;;;;32.38;13.85;;;;;;;;;;5038283;27;100099;-74
2022/01/14 02:01:46;;;;;;;30.27;12.32;;;;;;;;;;5037173;27;100236;-74
2022/01/14 02:04:13;;;;;;;31.15;13.93;;;;;;;;;;5037232;27;100669;-74
2022/01/14 02:06:40;;;;;;;35.67;15.38;;;;;;;;;;5004197;27;100242;-74
2022/01/14 02:09:12;;;;;;;31.17;13.63;;;;;;;;;;5055502;27;99987;-74
2022/01/14 02:11:39;;;;;;;30.67;13.27;;;;;;;;;;5037275;27;100728;-73
2022/01/14 02:14:14;;;;;;;28.52;13.55;;;;;;;;;;5034998;27;101278;-73
2022/01/14 02:19:32;;;;;;;36.95;13.73;;;;;;;;;;5026013;27;99978;-74
2022/01/14 02:22:12;;;;;;;30.73;11.82;;;;;;;;;;5054302;27;100296;-74
2022/01/14 02:27:08;;;;;;;22.75;9.45;;;;;;;;;;5037279;27;100019;-75
2022/01/14 02:29:35;;;;;;;32.63;12.75;;;;;;;;;;5037240;27;100464;-75
2022/01/14 02:32:02;;;;;;;27.02;10.00;;;;;;;;;;5036413;27;101735;-75
2022/01/14 02:34:29;;;;;;;25.42;11.60;;;;;;;;;;5019754;27;100808;-75
2022/01/14 02:36:56;;;;;;;28.25;11.00;;;;;;;;;;5020312;27;100023;-75
2022/01/14 02:39:23;;;;;;;28.30;10.60;;;;;;;;;;5020702;27;100013;-75
2022/01/14 02:41:51;;;;;;;29.48;12.52;;;;;;;;;;5036533;27;100300;-74
2022/01/14 02:44:24;;;;;;;25.65;11.23;;;;;;;;;;5036063;27;100551;-75
2022/01/14 02:46:54;;;;;;;25.50;10.88;;;;;;;;;;5018032;28;100097;-75
2022/01/14 02:49:28;;;;;;;20.73;9.43;;;;;;;;;;5034588;27;99949;-75
2022/01/14 02:51:55;;;;;;;27.65;11.02;;;;;;;;;;5040982;27;100496;-75
2022/01/14 02:54:32;;;;;;;23.38;11.30;;;;;;;;;;5036013;27;100660;-75
2022/01/14 02:56:59;;;;;;;31.67;11.25;;;;;;;;;;5038232;27;100074;-75
2022/01/14 02:59:26;;;;;;;22.52;10.20;;;;;;;;;;5019980;27;100146;-76
2022/01/14 03:01:53;;;;;;;32.38;11.82;;;;;;;;;;5019682;27;100562;-75
2022/01/14 03:04:20;;;;;;;30.67;11.65;;;;;;;;;;5036330;27;101843;-75
2022/01/14 03:06:48;;;;;;;22.40;9.07;;;;;;;;;;5020023;27;100156;-75
2022/01/14 03:09:15;;;;;;;26.95;10.98;;;;;;;;;;5019868;27;100167;-75
2022/01/14 03:11:52;;;;;;;27.60;11.63;;;;;;;;;;5053599;27;100378;-75
2022/01/14 03:14:23;;;;;;;29.17;10.98;;;;;;;;;;5019864;27;100649;-75
2022/01/14 03:16:54;;;;;;;33.17;11.15;;;;;;;;;;5037125;27;100221;-75
2022/01/14 03:19:25;;;;;;;31.02;12.18;;;;;;;;;;5019814;27;100136;-75
2022/01/14 03:22:03;;;;;;;29.38;12.48;;;;;;;;;;5020141;27;100517;-75
2022/01/14 03:27:04;;;;;;;20.45;9.43;;;;;;;;;;5036110;27;100076;-73
2022/01/14 03:29:31;;;;;;;23.17;9.55;;;;;;;;;;5036693;27;100027;-73
2022/01/14 03:31:59;;;;;;;22.55;9.95;;;;;;;;;;5036201;27;100336;-73
2022/01/14 03:34:26;;;;;;;25.92;10.85;;;;;;;;;;5035431;27;100588;-75
2022/01/14 03:36:53;;;;;;;22.90;10.15;;;;;;;;;;5035710;27;100098;-74
2022/01/14 03:39:20;;;;;;;29.23;10.85;;;;;;;;;;5054523;27;99921;-75
2022/01/14 03:41:47;;;;;;;23.73;10.45;;;;;;;;;;5053590;27;100484;-75
2022/01/14 03:44:14;;;;;;;25.15;9.95;;;;;;;;;;5035667;27;100696;-75
2022/01/14 03:46:41;;;;;;;26.42;10.73;;;;;;;;;;5036361;27;100037;-75
2022/01/14 03:49:08;;;;;;;22.15;9.60;;;;;;;;;;5053976;27;100077;-75
2022/01/14 03:51:35;;;;;;;22.63;9.40;;;;;;;;;;5019071;27;100290;-75
2022/01/14 03:54:02;;;;;;;25.02;10.07;;;;;;;;;;5035820;27;103516;-75
2022/01/14 03:56:29;;;;;;;26.52;10.35;;;;;;;;;;5054011;27;100060;-74
2022/01/14 03:58:59;;;;;;;25.77;10.52;;;;;;;;;;5019131;27;100022;-74
2022/01/14 04:01:25;;;;;;;24.45;10.43;;;;;;;;;;5045423;27;100348;-75
2022/01/14 04:03:52;;;;;;;23.23;9.70;;;;;;;;;;5025841;27;100562;-75
2022/01/14 04:06:19;;;;;;;22.83;10.57;;;;;;;;;;5053367;27;99844;-75
2022/01/14 04:08:46;;;;;;;27.67;11.85;;;;;;;;;;5053921;27;100028;-75
2022/01/14 04:11:13;;;;;;;24.85;10.80;;;;;;;;;;5053324;27;100373;-75
2022/01/14 04:13:50;;;;;;;23.77;10.13;;;;;;;;;;5035620;27;100564;-75
2022/01/14 04:16:18;;;;;;;26.00;11.00;;;;;;;;;;5022085;27;99938;-75
2022/01/14 04:18:45;;;;;;;27.95;10.45;;;;;;;;;;5053789;27;100059;-75
2022/01/14 04:21:11;;;;;;;24.67;10.10;;;;;;;;;;5053206;27;100784;-75
2022/01/14 04:23:38;;;;;;;22.42;8.85;;;;;;;;;;5035363;27;100568;-75
2022/01/14 04:26:05;;;;;;;24.65;10.43;;;;;;;;;;5034945;27;99857;-75
2022/01/14 04:28:35;;;;;;;18.52;8.48;;;;;;;;;;5015567;28;102616;-75
2022/01/14 04:31:06;;;;;;;27.17;11.55;;;;;;;;;;5015533;28;100391;-74
2022/01/14 04:33:33;;;;;;;25.48;10.15;;;;;;;;;;5014376;27;101299;-74
2022/01/14 04:36:02;;;;;;;21.88;8.73;;;;;;;;;;5015511;28;100078;-74
2022/01/14 04:38:30;;;;;;;25.00;9.93;;;;;;;;;;5016259;27;100058;-74
2022/01/14 04:40:56;;;;;;;28.65;11.25;;;;;;;;;;5018301;27;100233;-75
2022/01/14 04:43:23;;;;;;;24.88;9.85;;;;;;;;;;5035414;27;100521;-75
2022/01/14 04:46:02;;;;;;;26.40;10.07;;;;;;;;;;5018608;27;100076;-74
2022/01/14 04:48:31;;;;;;;24.50;10.20;;;;;;;;;;4987908;27;100218;-75
2022/01/14 04:50:57;;;;;;;26.77;11.82;;;;;;;;;;5017726;27;100544;-74
2022/01/14 04:53:24;;;;;;;29.30;11.82;;;;;;;;;;5017867;27;100695;-75
2022/01/14 04:55:51;;;;;;;26.13;11.73;;;;;;;;;;5018556;27;100136;-75
2022/01/14 04:58:18;;;;;;;26.05;10.82;;;;;;;;;;5031884;28;99930;-75
2022/01/14 05:00:45;;;;;;;24.08;10.52;;;;;;;;;;5015647;27;100230;-76
2022/01/14 05:03:12;;;;;;;29.85;11.48;;;;;;;;;;5052555;27;101093;-74
2022/01/14 05:05:43;;;;;;;26.83;10.48;;;;;;;;;;5035233;27;99994;-74
2022/01/14 05:08:15;;;;;;;23.30;9.25;;;;;;;;;;5035693;27;100045;-74
2022/01/14 05:13:23;;;;;;;53.08;15.13;;;;;;;;;;5052621;27;100555;-74
2022/01/14 05:15:51;;;;;;;81.28;19.58;;;;;;;;;;5044076;27;99987;-74
2022/01/14 05:18:18;;;;;;;80.90;18.38;;;;;;;;;;5033117;27;100010;-74
2022/01/14 05:20:45;;;;;;;131.52;25.80;;;;;;;;;;5033198;27;100817;-75
2022/01/14 05:23:12;;;;;;;97.30;21.17;;;;;;;;;;5034374;27;100675;-74
2022/01/14 05:25:39;;;;;;;82.18;19.67;;;;;;;;;;5003835;28;100016;-74
2022/01/14 05:28:05;;;;;;;79.55;18.10;;;;;;;;;;5050028;27;100038;-75
2022/01/14 05:30:32;;;;;;;48.88;15.68;;;;;;;;;;5014420;27;100431;-75
2022/01/14 05:32:59;;;;;;;38.08;13.90;;;;;;;;;;5014214;28;102457;-75
2022/01/14 05:35:27;;;;;;;30.90;12.27;;;;;;;;;;5031005;27;99927;-75
2022/01/14 05:37:54;;;;;;;22.73;9.38;;;;;;;;;;5013983;27;100139;-74
2022/01/14 05:40:21;;;;;;;26.73;10.23;;;;;;;;;;5013075;28;103215;-75
2022/01/14 05:42:48;;;;;;;27.05;10.60;;;;;;;;;;5013593;27;100699;-75
2022/01/14 05:45:15;;;;;;;27.90;11.00;;;;;;;;;;5031494;27;100288;-74
2022/01/14 05:47:42;;;;;;;26.88;10.38;;;;;;;;;;5014443;28;99968;-75
2022/01/14 05:50:12;;;;;;;27.98;10.98;;;;;;;;;;5013732;27;100226;-74
2022/01/14 05:52:39;;;;;;;19.13;8.88;;;;;;;;;;4997192;28;100626;-74
2022/01/14 05:55:06;;;;;;;26.85;11.48;;;;;;;;;;5047790;27;100020;-75
2022/01/14 05:57:34;;;;;;;22.80;9.05;;;;;;;;;;5051239;27;100029;-75
2022/01/14 06:00:03;;;;;;;24.73;10.50;;;;;;;;;;5033438;27;100199;-75
2022/01/14 06:02:30;;;;;;;27.95;12.13;;;;;;;;;;5033623;27;100618;-75
2022/01/14 06:04:57;;;;;;;21.17;9.15;;;;;;;;;;5016510;27;100066;-75
2022/01/14 06:07:24;;;;;;;28.63;11.90;;;;;;;;;;5051632;27;100016;-75
2022/01/14 06:09:52;;;;;;;26.08;11.30;;;;;;;;;;5033897;27;100368;-75
2022/01/14 06:12:19;;;;;;;22.15;10.73;;;;;;;;;;5051484;27;100648;-75
2022/01/14 06:14:46;;;;;;;31.25;11.70;;;;;;;;;;5051810;27;100105;-75
2022/01/14 06:17:13;;;;;;;22.17;10.30;;;;;;;;;;5034119;27;99991;-74
2022/01/14 06:19:40;;;;;;;24.10;11.68;;;;;;;;;;5049748;27;101604;-76
2022/01/14 06:22:06;;;;;;;28.15;11.10;;;;;;;;;;5033808;27;100542;-75
2022/01/14 06:24:33;;;;;;;22.60;10.93;;;;;;;;;;5045188;27;100027;-75
2022/01/14 06:27:01;;;;;;;22.80;11.20;;;;;;;;;;4997407;28;99955;-75
2022/01/14 06:29:27;;;;;;;26.52;11.05;;;;;;;;;;5013934;28;100282;-75
2022/01/14 06:31:54;;;;;;;29.20;11.45;;;;;;;;;;5039082;27;102932;-75
2022/01/14 06:34:24;;;;;;;26.33;12.00;;;;;;;;;;5075418;27;100029;-75
2022/01/14 06:36:51;;;;;;;30.38;13.73;;;;;;;;;;5057534;27;100203;-75
2022/01/14 06:39:18;;;;;;;29.88;13.25;;;;;;;;;;5074574;27;101546;-75
2022/01/14 06:41:44;;;;;;;26.67;10.73;;;;;;;;;;5075023;27;100545;-74
2022/01/14 06:44:12;;;;;;;28.80;11.38;;;;;;;;;;5057020;27;100146;-75
2022/01/14 06:46:39;;;;;;;30.40;12.60;;;;;;;;;;5074882;27;100150;-75
2022/01/14 06:49:06;;;;;;;23.83;11.15;;;;;;;;;;5074972;27;100473;-74
2022/01/14 06:51:32;;;;;;;28.33;13.23;;;;;;;;;;5056844;27;100582;-75
2022/01/14 06:53:59;;;;;;;27.00;12.15;;;;;;;;;;5074628;27;100072;-75
2022/01/14 06:56:26;;;;;;;28.55;11.98;;;;;;;;;;5057216;27;100024;-75
2022/01/14 06:58:53;;;;;;;28.52;11.93;;;;;;;;;;5056291;27;101238;-75
2022/01/14 07:01:20;;;;;;;30.15;12.90;;;;;;;;;;5074809;27;100581;-75
2022/01/14 07:03:47;;;;;;;32.97;13.85;;;;;;;;;;5056798;27;100071;-75
2022/01/14 07:06:14;;;;;;;25.30;11.75;;;;;;;;;;5022101;27;100051;-75
2022/01/14 07:08:42;;;;;;;25.15;12.05;;;;;;;;;;5056593;27;100700;-74
2022/01/14 07:11:10;;;;;;;34.65;15.02;;;;;;;;;;5050036;27;100545;-75
2022/01/14 07:13:37;;;;;;;30.95;13.38;;;;;;;;;;5033136;27;100051;-75
2022/01/14 07:16:05;;;;;;;25.73;11.52;;;;;;;;;;5052764;27;100033;-75
2022/01/14 07:18:32;;;;;;;36.35;15.40;;;;;;;;;;5052087;27;100402;-75
2022/01/14 07:20:59;;;;;;;26.95;12.07;;;;;;;;;;5034642;27;100611;-75
2022/01/14 07:23:28;;;;;;;30.00;13.85;;;;;;;;;;5037730;27;99984;-75
2022/01/14 07:25:55;;;;;;;29.67;13.85;;;;;;;;;;5034668;27;99883;-75
2022/01/14 07:28:22;;;;;;;40.20;15.60;;;;;;;;;;5036006;27;100276;-75
2022/01/14 07:30:48;;;;;;;46.78;19.83;;;;;;;;;;5055562;27;100742;-75
2022/01/14 07:33:16;;;;;;;44.25;17.05;;;;;;;;;;5072660;27;100240;-75
2022/01/14 07:35:43;;;;;;;40.20;17.73;;;;;;;;;;5056765;27;100107;-75
2022/01/14 07:38:10;;;;;;;25.25;11.85;;;;;;;;;;5055869;27;100396;-75
2022/01/14 07:40:39;;;;;;;31.20;14.15;;;;;;;;;;5054544;27;100509;-75
2022/01/14 07:43:06;;;;;;;26.98;11.45;;;;;;;;;;5038860;27;100158;-75
2022/01/14 07:45:33;;;;;;;32.25;13.18;;;;;;;;;;5055415;27;99822;-75
2022/01/14 07:48:00;;;;;;;30.00;14.18;;;;;;;;;;5055689;27;100327;-76
2022/01/14 07:50:28;;;;;;;30.55;12.90;;;;;;;;;;5055859;27;101369;-75
2022/01/14 07:52:55;;;;;;;43.88;16.13;;;;;;;;;;5045220;27;100622;-74
2022/01/14 07:55:22;;;;;;;30.85;13.00;;;;;;;;;;5046441;27;100031;-74
2022/01/14 07:57:48;;;;;;;27.38;10.95;;;;;;;;;;5053586;27;100266;-74
2022/01/14 08:00:16;;;;;;;22.70;9.98;;;;;;;;;;5035133;27;100591;-74
2022/01/14 08:02:43;;;;;;;27.02;12.40;;;;;;;;;;5034727;27;101205;-74
2022/01/14 08:05:11;;;;;;;29.85;13.20;;;;;;;;;;5053085;27;100127;-74
2022/01/14 08:07:45;;;;;;;23.38;11.30;;;;;;;;;;5017738;27;100350;-75
2022/01/14 08:10:16;;;;;;;18.98;8.82;;;;;;;;;;5052345;27;100614;-74
2022/01/14 08:12:43;;;;;;;21.20;9.85;;;;;;;;;;5052969;27;100116;-74
2022/01/14 08:15:10;;;;;;;23.08;11.60;;;;;;;;;;5052982;27;99993;-74
2022/01/14 08:17:37;;;;;;;37.55;14.68;;;;;;;;;;5017896;27;100344;-74
2022/01/14 08:20:04;;;;;;;36.13;16.35;;;;;;;;;;5033891;27;100539;-76
2022/01/14 08:22:31;;;;;;;27.23;11.93;;;;;;;;;;5018092;27;100114;-74
2022/01/14 08:24:58;;;;;;;30.63;13.20;;;;;;;;;;5053440;27;100026;-74
2022/01/14 08:27:28;;;;;;;28.85;13.27;;;;;;;;;;5032313;27;100490;-75
2022/01/14 08:29:55;;;;;;;43.97;18.58;;;;;;;;;;5014569;28;100099;-75
2022/01/14 08:32:22;;;;;;;30.55;14.68;;;;;;;;;;5041947;27;100560;-75
2022/01/14 08:34:49;;;;;;;43.13;18.17;;;;;;;;;;5052690;27;100149;-74
2022/01/14 08:37:16;;;;;;;36.40;16.42;;;;;;;;;;4996079;27;100895;-74
2022/01/14 08:39:44;;;;;;;34.10;16.15;;;;;;;;;;5043292;27;100716;-75
2022/01/14 08:42:12;;;;;;;43.67;17.23;;;;;;;;;;5016463;27;100029;-75
2022/01/14 08:44:39;;;;;;;42.05;18.17;;;;;;;;;;5017780;27;100282;-74
2022/01/14 08:47:09;;;;;;;44.45;19.38;;;;;;;;;;4999664;27;100513;-74
2022/01/14 08:49:37;;;;;;;43.03;18.38;;;;;;;;;;5031990;27;100516;-75
2022/01/14 08:52:04;;;;;;;39.83;16.77;;;;;;;;;;5012924;27;100109;-75
2022/01/14 08:54:31;;;;;;;41.72;16.77;;;;;;;;;;5017627;27;100096;-75
2022/01/14 08:56:58;;;;;;;35.85;15.23;;;;;;;;;;5032488;27;100329;-75
2022/01/14 08:59:25;;;;;;;36.72;16.00;;;;;;;;;;5033596;27;100809;-75
2022/01/14 09:01:52;;;;;;;42.83;18.52;;;;;;;;;;5016759;27;100464;-75
2022/01/14 09:04:19;;;;;;;32.00;15.10;;;;;;;;;;5015965;27;100502;-74
2022/01/14 09:06:46;;;;;;;33.10;14.43;;;;;;;;;;5033707;27;102171;-75
2022/01/14 09:09:13;;;;;;;29.00;13.52;;;;;;;;;;5050871;27;100561;-75
2022/01/14 09:11:40;;;;;;;24.38;11.45;;;;;;;;;;5032029;27;100155;-75
2022/01/14 09:14:07;;;;;;;23.27;10.32;;;;;;;;;;5033659;27;100049;-75
2022/01/14 09:16:35;;;;;;;20.20;9.45;;;;;;;;;;5016638;27;100639;-75
2022/01/14 09:19:02;;;;;;;24.60;9.88;;;;;;;;;;5016509;27;100630;-75
2022/01/14 09:21:29;;;;;;;21.33;9.10;;;;;;;;;;5015752;27;100089;-74
2022/01/14 09:24:05;;;;;;;23.98;11.02;;;;;;;;;;5034236;27;100031;-75
2022/01/14 09:26:35;;;;;;;20.38;8.82;;;;;;;;;;5033241;27;100974;-75
2022/01/14 09:29:03;;;;;;;20.38;9.02;;;;;;;;;;5016605;27;100583;-75
2022/01/14 09:31:30;;;;;;;16.40;8.00;;;;;;;;;;5032524;27;100105;-75
2022/01/14 09:33:57;;;;;;;20.13;8.77;;;;;;;;;;5016207;27;101991;-74
2022/01/14 09:36:24;;;;;;;19.40;9.10;;;;;;;;;;5033482;27;100373;-74
2022/01/14 09:38:51;;;;;;;18.13;8.35;;;;;;;;;;5015174;27;101089;-74
2022/01/14 09:41:18;;;;;;;20.27;8.68;;;;;;;;;;5032388;27;100022;-74
2022/01/14 09:43:45;;;;;;;17.23;8.77;;;;;;;;;;5016206;27;100051;-74
2022/01/14 09:46:12;;;;;;;20.95;10.02;;;;;;;;;;5006749;28;102377;-74
2022/01/14 09:48:39;;;;;;;19.52;8.40;;;;;;;;;;5032396;27;101040;-73
2022/01/14 09:51:06;;;;;;;23.90;11.25;;;;;;;;;;5014548;27;100159;-74
2022/01/14 09:53:33;;;;;;;21.45;9.80;;;;;;;;;;4996257;27;100092;-76
2022/01/14 09:56:02;;;;;;;18.92;8.73;;;;;;;;;;5012821;27;100287;-75
2022/01/14 09:58:35;;;;;;;20.30;9.20;;;;;;;;;;4996271;27;100611;-75
2022/01/14 10:01:13;;;;;;;20.05;8.90;;;;;;;;;;5030077;27;100253;-75
2022/01/14 10:03:51;;;;;;;19.67;9.57;;;;;;;;;;5030265;27;100097;-75
2022/01/14 10:06:45;;;;;;;20.60;9.68;;;;;;;;;;5025192;27;100291;-76
2022/01/14 10:09:43;;;;;;;25.15;11.23;;;;;;;;;;5021614;27;102194;-75
2022/01/14 10:12:13;;;;;;;21.63;10.00;;;;;;;;;;5032656;27;100113;-75
2022/01/14 10:14:43;;;;;;;23.38;9.13;;;;;;;;;;4994282;27;101830;-75
2022/01/14 10:17:11;;;;;;;24.23;10.95;;;;;;;;;;4997055;28;101607;-76
2022/01/14 10:19:42;;;;;;;26.35;12.57;;;;;;;;;;5015681;28;100691;-75
2022/01/14 10:22:25;;;;;;;21.85;10.52;;;;;;;;;;5015715;27;100406;-75
2022/01/14 10:24:59;;;;;;;21.23;9.77;;;;;;;;;;5034307;27;100045;-74
2022/01/14 10:27:35;;;;;;;20.35;9.50;;;;;;;;;;5035284;27;100348;-75
2022/01/14 10:30:23;;;;;;;19.33;8.90;;;;;;;;;;5053834;27;100537;-74
2022/01/14 10:33:07;;;;;;;16.45;7.30;;;;;;;;;;5018263;27;100191;-74
2022/01/14 10:35:35;;;;;;;18.98;8.93;;;;;;;;;;5053309;27;100086;-75
2022/01/14 10:38:06;;;;;;;19.27;9.27;;;;;;;;;;5004317;27;103263;-74
2022/01/14 10:40:35;;;;;;;22.88;9.95;;;;;;;;;;5051111;27;100796;-75
2022/01/14 10:43:06;;;;;;;19.63;8.35;;;;;;;;;;5002333;27;100104;-74
2022/01/14 10:45:53;;;;;;;19.02;9.55;;;;;;;;;;5035164;27;100316;-75
2022/01/14 10:48:31;;;;;;;19.65;9.70;;;;;;;;;;5035443;27;101077;-75
2022/01/14 10:50:59;;;;;;;24.67;10.50;;;;;;;;;;5031942;27;101401;-77
2022/01/14 10:53:29;;;;;;;18.50;8.45;;;;;;;;;;5032284;27;100207;-76
2022/01/14 10:56:01;;;;;;;23.48;11.35;;;;;;;;;;5043605;27;100396;-75
2022/01/14 10:58:48;;;;;;;24.73;11.05;;;;;;;;;;5035500;27;100316;-76
2022/01/14 11:01:21;;;;;;;19.55;8.82;;;;;;;;;;5034019;27;100760;-75
2022/01/14 11:03:48;;;;;;;21.25;9.13;;;;;;;;;;5018994;27;100090;-75
2022/01/14 11:06:19;;;;;;;19.60;9.23;;;;;;;;;;5034330;27;100369;-76
2022/01/14 11:08:46;;;;;;;24.75;10.38;;;;;;;;;;5051340;27;100419;-74
2022/01/14 11:11:13;;;;;;;22.17;9.98;;;;;;;;;;5030517;27;100921;-74
2022/01/14 11:14:00;;;;;;;21.90;9.93;;;;;;;;;;5051357;27;100179;-74
2022/01/14 11:16:27;;;;;;;21.58;9.88;;;;;;;;;;5012402;27;100576;-74
2022/01/14 11:18:58;;;;;;;24.67;10.18;;;;;;;;;;5012742;28;100931;-74
2022/01/14 11:24:14;;;;;;;17.95;7.85;;;;;;;;;;5038952;27;100291;-74
2022/01/14 11:26:41;;;;;;;16.85;8.50;;;;;;;;;;5014598;27;100096;-75
2022/01/14 11:29:11;;;;;;;23.92;10.30;;;;;;;;;;5013705;27;100806;-74
2022/01/14 11:31:39;;;;;;;20.48;8.93;;;;;;;;;;5004942;27;100645;-75
2022/01/14 11:34:07;;;;;;;23.48;10.57;;;;;;;;;;5014823;28;100173;-74
2022/01/14 11:37:10;;;;;;;23.05;9.85;;;;;;;;;;5014749;27;100140;-74
2022/01/14 11:39:39;;;;;;;20.65;10.10;;;;;;;;;;4951593;28;100432;-75
2022/01/14 11:42:12;;;;;;;15.95;8.95;;;;;;;;;;5009014;27;100604;-76
2022/01/14 11:44:44;;;;;;;;;;;;;;;;;;5015947;27;100163;-75
2022/01/14 11:47:40;;;;;;;13.57;6.80;;;;;;;;;;5032722;27;101130;-75
2022/01/14 11:50:20;;;;;;;13.35;6.03;;;;;;;;;;5011040;27;100303;-75
2022/01/14 11:52:47;;;;;;;15.18;7.38;;;;;;;;;;5035075;27;100642;-75
2022/01/14 11:55:23;;;;;;;20.25;8.52;;;;;;;;;;5032747;27;100208;-74
2022/01/14 11:57:51;;;;;;;13.65;6.38;;;;;;;;;;5052802;27;100152;-76
2022/01/14 12:00:29;;;;;;;12.15;6.28;;;;;;;;;;5016469;27;100499;-75
2022/01/14 12:03:26;;;;;;;15.65;6.85;;;;;;;;;;5051145;27;101121;-75
2022/01/14 12:05:58;;;;;;;12.20;5.85;;;;;;;;;;5031167;27;100261;-75
2022/01/14 12:08:29;;;;;;;15.02;6.57;;;;;;;;;;5013832;27;100116;-75
2022/01/14 12:11:06;;;;;;;13.68;6.13;;;;;;;;;;5013802;27;100426;-75
2022/01/14 12:16:04;;;;;;;14.35;7.03;;;;;;;;;;5018357;27;100144;-76
2022/01/14 12:18:59;;;;;;;13.45;5.85;;;;;;;;;;5032010;27;100181;-75
2022/01/14 12:21:41;;;;;;;15.27;7.05;;;;;;;;;;5030554;27;100250;-76
2022/01/14 12:24:27;;;;;;;12.25;6.15;;;;;;;;;;5031376;27;100599;-75
2022/01/14 12:26:54;;;;;;;12.43;5.65;;;;;;;;;;5033076;27;102604;-76
2022/01/14 12:29:31;;;;;;;11.07;6.30;;;;;;;;;;5049174;27;100455;-75
2022/01/14 12:32:07;;;;;;;12.40;5.75;;;;;;;;;;5051065;27;100685;-75
2022/01/14 12:34:44;;;;;;;11.68;6.00;;;;;;;;;;5012503;27;101853;-77
2022/01/14 12:37:33;;;;;;;16.02;7.07;;;;;;;;;;5014017;27;100363;-75
2022/01/14 12:40:11;;;;;;;13.55;6.00;;;;;;;;;;5014585;27;100251;-75
2022/01/14 12:42:38;;;;;;;15.65;6.97;;;;;;;;;;5012023;27;102381;-76
2022/01/14 12:45:07;;;;;;;11.13;5.45;;;;;;;;;;5050872;27;100742;-76
2022/01/14 12:47:38;;;;;;;14.82;6.20;;;;;;;;;;5033454;27;100126;-76
2022/01/14 12:50:10;;;;;;;11.85;6.28;;;;;;;;;;5051011;27;100773;-76
2022/01/14 12:52:49;;;;;;;12.70;6.55;;;;;;;;;;5051041;27;101005;-76
2022/01/14 12:55:17;;;;;;;13.77;6.25;;;;;;;;;;5028673;27;100695;-76
2022/01/14 12:57:44;;;;;;;15.80;7.32;;;;;;;;;;4995936;27;100750;-74
2022/01/14 13:00:12;;;;;;;16.25;5.93;;;;;;;;;;5035598;27;102105;-75
2022/01/14 13:02:39;;;;;;;12.98;6.75;;;;;;;;;;4997048;27;102662;-75
2022/01/14 13:05:14;;;;;;;14.95;6.57;;;;;;;;;;5020058;27;100723;-75
2022/01/14 13:07:41;;;;;;;16.65;7.40;;;;;;;;;;5013972;27;100274;-76
2022/01/14 13:10:08;;;;;;;16.10;7.63;;;;;;;;;;5021362;27;100320;-74
2022/01/14 13:12:40;;;;;;;14.38;7.00;;;;;;;;;;5001870;27;100367;-75
2022/01/14 13:15:10;;;;;;;13.35;6.68;;;;;;;;;;5023737;27;101878;-75
2022/01/14 13:17:41;;;;;;;18.98;7.68;;;;;;;;;;5023990;27;100135;-76
2022/01/14 13:20:13;;;;;;;13.82;6.53;;;;;;;;;;5044657;27;100547;-75
2022/01/14 13:22:41;;;;;;;12.73;6.55;;;;;;;;;;5020065;27;101796;-75
2022/01/14 13:25:10;;;;;;;12.73;6.22;;;;;;;;;;5037725;27;100642;-75
2022/01/14 13:27:40;;;;;;;12.93;6.18;;;;;;;;;;5003287;27;100768;-75
2022/01/14 13:30:33;;;;;;;12.23;6.13;;;;;;;;;;5006773;27;100191;-75
2022/01/14 13:33:02;;;;;;;19.25;6.50;;;;;;;;;;5009516;27;101792;-75
2022/01/14 13:35:33;;;;;;;14.48;5.68;;;;;;;;;;5019666;27;100550;-75
2022/01/14 13:38:02;;;;;;;12.80;6.25;;;;;;;;;;5013038;27;100295;-75
2022/01/14 13:40:34;;;;;;;12.25;6.25;;;;;;;;;;5021227;27;100289;-74
2022/01/14 13:43:19;;;;;;;11.25;5.57;;;;;;;;;;4993572;27;100445;-75
2022/01/14 13:45:48;;;;;;;10.43;5.10;;;;;;;;;;5036591;27;100774;-75
2022/01/14 13:48:23;;;;;;;13.65;5.63;;;;;;;;;;5027856;27;100270;-75
2022/01/14 13:51:16;;;;;;;10.82;5.88;;;;;;;;;;5028268;27;100650;-76
2022/01/14 13:53:45;;;;;;;11.10;5.32;;;;;;;;;;5031028;27;101521;-74
2022/01/14 13:56:22;;;;;;;13.98;6.47;;;;;;;;;;5016253;27;103948;-75
2022/01/14 13:58:53;;;;;;;13.73;5.47;;;;;;;;;;5009182;27;102241;-75
2022/01/14 14:01:23;;;;;;;10.40;4.53;;;;;;;;;;5042016;27;100159;-75
2022/01/14 14:03:58;;;;;;;12.27;5.82;;;;;;;;;;5046823;27;100466;-74
2022/01/14 14:06:34;;;;;;;10.20;5.22;;;;;;;;;;5016933;27;100803;-75
2022/01/14 14:17:02;;;;;;;;;;;;;;;;;;5030271;27;100513;-76
2022/01/14 14:19:40;;;;;;;13.52;5.15;;;;;;;;;;5041136;27;100216;-76
2022/01/14 14:22:19;;;;;;;12.13;5.65;;;;;;;;;;5014036;27;100467;-75
2022/01/14 14:24:58;;;;;;;12.02;5.68;;;;;;;;;;5044809;27;100316;-73
2022/01/14 14:27:26;;;;;;;9.25;4.63;;;;;;;;;;5040199;27;100857;-76
2022/01/14 14:29:58;;;;;;;12.27;5.32;;;;;;;;;;5018227;27;100372;-74
2022/01/14 14:32:31;;;;;;;12.20;6.40;;;;;;;;;;5038220;27;100633;-74
2022/01/14 14:34:59;;;;;;;11.95;5.93;;;;;;;;;;5026083;27;100330;-75
2022/01/14 14:37:31;;;;;;;10.05;5.72;;;;;;;;;;5042542;27;100690;-74
2022/01/14 14:39:59;;;;;;;16.20;7.20;;;;;;;;;;5042128;27;100231;-74
2022/01/14 14:42:26;;;;;;;11.90;5.40;;;;;;;;;;5048162;27;100180;-75
2022/01/14 14:44:52;;;;;;;12.70;6.05;;;;;;;;;;5026393;27;100633;-75
2022/01/14 14:47:19;;;;;;;12.63;5.53;;;;;;;;;;5019870;27;100746;-75
2022/01/14 14:49:49;;;;;;;13.05;5.38;;;;;;;;;;5023649;27;100210;-75
2022/01/14 14:52:19;;;;;;;9.52;4.72;;;;;;;;;;5024383;27;100105;-75
2022/01/14 14:54:46;;;;;;;12.02;5.05;;;;;;;;;;5026398;27;100424;-75
2022/01/14 14:57:12;;;;;;;13.60;6.03;;;;;;;;;;5015769;27;100573;-74
2022/01/14 14:59:39;;;;;;;12.77;5.45;;;;;;;;;;5041159;27;100256;-74
2022/01/14 15:02:10;;;;;;;13.15;5.95;;;;;;;;;;5034370;27;100002;-74
2022/01/14 15:04:39;;;;;;;11.85;5.22;;;;;;;;;;5017901;27;100305;-76
2022/01/14 15:07:06;;;;;;;14.00;5.22;;;;;;;;;;5025229;27;100574;-75